createdAt,value
2023-05-17T00:00:59.180Z,12.45
2023-05-17T00:03:26.113Z,12.73
2023-05-17T00:05:53.331Z,12.20
2023-05-17T00:08:22.847Z,13.02
2023-05-17T00:10:49.685Z,17.50
2023-05-17T00:13:16.524Z,14.93
2023-05-17T00:15:43.420Z,12.05
2023-05-17T00:18:10.458Z,17.88
2023-05-17T00:20:37.435Z,16.23
2023-05-17T00:23:04.428Z,18.02
2023-05-17T00:25:31.542Z,18.38
2023-05-17T00:27:58.608Z,20.45
2023-05-17T00:30:25.558Z,19.70
2023-05-17T00:32:52.655Z,26.02
2023-05-17T00:35:19.633Z,19.17
2023-05-17T00:37:48.008Z,14.20
2023-05-17T00:40:18.291Z,18.27
2023-05-17T00:42:45.380Z,13.15
2023-05-17T00:45:12.249Z,17.55
2023-05-17T00:47:39.459Z,12.52
2023-05-17T00:50:07.126Z,19.17
2023-05-17T00:52:34.647Z,12.95
2023-05-17T00:55:02.070Z,16.52
2023-05-17T00:57:29.313Z,11.55
2023-05-17T00:59:56.708Z,19.00
2023-05-17T01:02:24.170Z,22.65
2023-05-17T01:04:51.251Z,16.13
2023-05-17T01:07:18.469Z,12.77
2023-05-17T01:09:47.432Z,18.85
2023-05-17T01:12:46.158Z,16.70
2023-05-17T01:15:28.828Z,12.32
2023-05-17T01:18:21.878Z,17.40
2023-05-17T01:20:51.031Z,21.60
2023-05-17T01:23:28.661Z,13.90
2023-05-17T01:26:27.861Z,20.25
2023-05-17T01:28:57.133Z,19.23
2023-05-17T01:31:24.667Z,12.32
2023-05-17T01:33:51.724Z,14.35
2023-05-17T01:36:18.604Z,17.83
2023-05-17T01:38:45.453Z,16.33
2023-05-17T01:41:27.017Z,13.02
2023-05-17T01:44:28.060Z,20.65
2023-05-17T01:47:06.462Z,15.25
2023-05-17T01:49:38.774Z,20.90
2023-05-17T01:52:28.345Z,12.00
2023-05-17T01:55:06.500Z,31.42
2023-05-17T01:57:36.770Z,19.65
2023-05-17T02:00:10.889Z,13.93
2023-05-17T02:02:45.702Z,22.73
2023-05-17T02:05:13.464Z,18.23
2023-05-17T02:07:40.544Z,25.13
2023-05-17T02:10:08.068Z,17.45
2023-05-17T02:12:36.540Z,17.65
2023-05-17T02:15:03.959Z,13.05
2023-05-17T02:17:31.149Z,18.77
2023-05-17T02:19:58.088Z,16.40
2023-05-17T02:22:24.917Z,15.98
2023-05-17T02:24:51.755Z,12.35
2023-05-17T02:27:18.582Z,14.02
2023-05-17T02:29:45.431Z,17.45
2023-05-17T02:32:12.602Z,27.40
2023-05-17T02:34:39.430Z,15.80
2023-05-17T02:37:06.475Z,15.82
2023-05-17T02:39:33.899Z,20.23
2023-05-17T02:42:00.811Z,22.42
2023-05-17T02:44:27.652Z,18.00
2023-05-17T02:46:54.575Z,19.02
2023-05-17T02:49:21.418Z,14.95
2023-05-17T02:51:48.293Z,26.08
2023-05-17T02:54:15.139Z,17.70
2023-05-17T02:56:42.055Z,17.80
2023-05-17T02:59:09.236Z,27.55
2023-05-17T03:01:37.677Z,18.92
2023-05-17T03:04:05.232Z,17.40
2023-05-17T03:06:32.199Z,14.85
2023-05-17T03:08:59.088Z,17.13
2023-05-17T03:11:26.223Z,32.05
2023-05-17T03:13:55.194Z,20.70
2023-05-17T03:16:26.555Z,14.98
2023-05-17T03:18:53.512Z,16.33
2023-05-17T03:21:20.511Z,21.77
2023-05-17T03:23:48.542Z,17.52
2023-05-17T03:26:16.283Z,14.80
2023-05-17T03:28:49.039Z,17.77
2023-05-17T03:31:17.587Z,20.27
2023-05-17T03:33:45.564Z,18.17
2023-05-17T03:36:14.062Z,12.18
2023-05-17T03:38:41.044Z,19.63
2023-05-17T03:41:08.098Z,13.60
2023-05-17T03:43:35.105Z,20.25
2023-05-17T03:46:02.001Z,16.95
2023-05-17T03:48:29.661Z,14.52
2023-05-17T03:50:56.621Z,18.17
2023-05-17T03:53:23.455Z,15.73
2023-05-17T03:55:50.405Z,16.20
2023-05-17T03:58:18.394Z,22.10
2023-05-17T04:00:45.359Z,18.17
2023-05-17T04:03:17.950Z,17.63
2023-05-17T04:05:46.649Z,13.38
2023-05-17T04:08:13.869Z,19.05
2023-05-17T04:10:42.417Z,17.30
2023-05-17T04:13:09.822Z,14.57
2023-05-17T04:15:38.043Z,16.40
2023-05-17T04:18:06.288Z,11.18
2023-05-17T04:20:33.290Z,15.35
2023-05-17T04:23:00.287Z,9.40
2023-05-17T04:25:30.301Z,13.75
2023-05-17T04:27:57.903Z,11.65
2023-05-17T04:30:24.991Z,18.73
2023-05-17T04:32:52.118Z,13.70
2023-05-17T04:35:19.466Z,18.83
2023-05-17T04:37:49.584Z,17.85
2023-05-17T04:40:21.308Z,11.20
2023-05-17T04:42:49.131Z,13.27
2023-05-17T04:45:17.708Z,8.68
2023-05-17T04:47:44.819Z,13.60
2023-05-17T04:50:12.563Z,14.38
2023-05-17T04:52:39.736Z,10.73
2023-05-17T04:55:08.102Z,14.85
2023-05-17T04:57:35.981Z,13.82
2023-05-17T05:00:10.246Z,16.88
2023-05-17T05:02:40.175Z,13.07
2023-05-17T05:05:09.654Z,13.57
2023-05-17T05:07:39.724Z,13.77
2023-05-17T05:10:08.188Z,10.88
2023-05-17T05:12:35.097Z,16.38
2023-05-17T05:15:02.013Z,10.90
2023-05-17T05:17:30.925Z,15.13
2023-05-17T05:19:58.335Z,17.38
2023-05-17T05:22:26.345Z,13.20
2023-05-17T05:24:55.700Z,18.45
2023-05-17T05:27:23.077Z,17.73
2023-05-17T05:29:51.028Z,11.02
2023-05-17T05:32:18.125Z,13.90
2023-05-17T05:34:46.487Z,13.65
2023-05-17T05:37:14.438Z,12.00
2023-05-17T05:39:42.765Z,14.88
2023-05-17T05:42:09.637Z,7.45
2023-05-17T05:44:36.509Z,12.48
2023-05-17T05:47:03.561Z,8.65
2023-05-17T05:49:30.436Z,14.73
2023-05-17T05:51:57.344Z,15.02
2023-05-17T05:54:27.460Z,16.65
2023-05-17T05:56:55.270Z,13.90
2023-05-17T05:59:22.363Z,13.43
2023-05-17T06:01:49.263Z,9.63
2023-05-17T06:04:16.166Z,12.02
2023-05-17T06:06:43.144Z,12.13
2023-05-17T06:09:12.405Z,14.40
2023-05-17T06:11:39.784Z,15.48
2023-05-17T06:14:07.817Z,14.70
2023-05-17T06:16:35.767Z,19.05
2023-05-17T06:19:03.285Z,15.60
2023-05-17T06:21:31.110Z,13.93
2023-05-17T06:23:58.012Z,15.55
2023-05-17T06:26:24.876Z,9.07
2023-05-17T06:28:51.751Z,14.23
2023-05-17T06:31:19.746Z,8.73
2023-05-17T06:33:47.990Z,14.10
2023-05-17T06:36:15.244Z,9.60
2023-05-17T06:38:42.195Z,10.55
2023-05-17T06:41:09.145Z,16.98
2023-05-17T06:43:37.738Z,8.18
2023-05-17T06:46:04.794Z,8.73
2023-05-17T06:48:31.692Z,7.78
2023-05-17T06:50:58.711Z,6.13
2023-05-17T06:53:27.251Z,13.95
2023-05-17T06:55:54.152Z,17.98
2023-05-17T06:58:21.005Z,11.25
2023-05-17T07:00:48.305Z,14.68
2023-05-17T07:03:15.250Z,10.75
2023-05-17T07:05:42.224Z,10.45
2023-05-17T07:08:09.145Z,9.02
2023-05-17T07:10:36.093Z,15.20
2023-05-17T07:13:02.963Z,11.23
2023-05-17T07:15:30.162Z,16.25
2023-05-17T07:17:57.377Z,16.38
2023-05-17T07:20:24.433Z,8.13
2023-05-17T07:22:51.312Z,9.35
2023-05-17T07:25:18.920Z,7.90
2023-05-17T07:27:45.918Z,7.80
2023-05-17T07:30:13.195Z,10.68
2023-05-17T07:32:40.067Z,13.73
2023-05-17T07:35:08.084Z,12.65
2023-05-17T07:37:34.913Z,6.57
2023-05-17T07:40:02.211Z,17.73
2023-05-17T07:42:29.071Z,6.05
2023-05-17T07:44:55.923Z,12.75
2023-05-17T07:47:22.766Z,8.52
2023-05-17T07:49:49.654Z,14.27
2023-05-17T07:52:16.555Z,5.63
2023-05-17T07:54:43.456Z,10.40
2023-05-17T07:57:10.462Z,11.65
2023-05-17T07:59:37.432Z,11.70
2023-05-17T08:02:04.445Z,7.43
2023-05-17T08:04:31.377Z,9.70
2023-05-17T08:06:58.472Z,8.27
2023-05-17T08:09:25.305Z,12.32
2023-05-17T08:11:52.303Z,9.05
2023-05-17T08:14:21.631Z,7.38
2023-05-17T08:16:48.544Z,10.90
2023-05-17T08:19:16.558Z,6.85
2023-05-17T08:21:44.036Z,9.20
2023-05-17T08:24:11.664Z,8.02
2023-05-17T08:26:38.818Z,7.95
2023-05-17T08:29:05.787Z,8.13
2023-05-17T08:31:33.122Z,14.02
2023-05-17T08:34:03.289Z,4.82
2023-05-17T08:36:30.329Z,7.45
2023-05-17T08:38:57.164Z,8.23
2023-05-17T08:41:24.910Z,2.88
2023-05-17T08:43:52.944Z,5.68
2023-05-17T08:46:21.992Z,11.40
2023-05-17T08:48:53.534Z,4.85
2023-05-17T08:51:21.894Z,7.07
2023-05-17T08:53:50.558Z,6.03
2023-05-17T08:56:20.380Z,9.82
2023-05-17T08:58:57.082Z,6.93
2023-05-17T09:01:26.622Z,3.50
2023-05-17T09:03:54.860Z,8.35
2023-05-17T09:06:23.547Z,6.57
2023-05-17T09:08:52.912Z,4.05
2023-05-17T09:11:27.689Z,4.67
2023-05-17T09:13:58.371Z,4.50
2023-05-17T09:16:26.514Z,3.10
2023-05-17T09:18:57.913Z,9.38
2023-05-17T09:21:26.556Z,4.75
2023-05-17T09:24:05.614Z,3.67
2023-05-17T09:26:43.185Z,4.75
2023-05-17T09:29:11.971Z,2.08
2023-05-17T09:31:39.908Z,4.78
2023-05-17T09:34:08.122Z,6.63
2023-05-17T09:36:42.680Z,2.33
2023-05-17T09:39:12.028Z,6.47
2023-05-17T09:41:48.247Z,19.98
2023-05-17T09:44:15.925Z,4.10
2023-05-17T09:46:45.594Z,2.60
2023-05-17T09:49:13.959Z,1.63
2023-05-17T09:51:43.047Z,9.50
2023-05-17T09:54:10.886Z,1.77
2023-05-17T09:56:38.048Z,4.00
2023-05-17T09:59:15.189Z,4.00
2023-05-17T10:01:45.156Z,3.83
2023-05-17T10:04:13.772Z,2.97
2023-05-17T10:09:16.806Z,2.58
2023-05-17T10:11:46.833Z,3.25
2023-05-17T10:14:19.139Z,2.00
2023-05-17T10:16:46.945Z,1.45
2023-05-17T10:19:15.011Z,2.53
2023-05-17T10:21:43.279Z,2.90
2023-05-17T10:24:11.364Z,3.90
2023-05-17T10:26:39.059Z,2.28
2023-05-17T10:29:06.932Z,6.63
2023-05-17T10:31:36.443Z,5.38
2023-05-17T10:34:06.536Z,4.03
2023-05-17T10:36:34.250Z,6.75
2023-05-17T10:39:02.016Z,2.17
2023-05-17T10:41:34.442Z,3.75
2023-05-17T10:44:04.596Z,2.50
2023-05-17T10:46:31.655Z,6.07
2023-05-17T10:49:00.432Z,2.30
2023-05-17T10:51:34.549Z,5.20
2023-05-17T10:54:05.154Z,3.53
2023-05-17T10:56:32.598Z,5.25
2023-05-17T10:59:26.854Z,2.30
2023-05-17T11:02:01.281Z,2.28
2023-05-17T11:04:38.158Z,2.55
2023-05-17T11:07:17.547Z,3.28
2023-05-17T11:09:46.244Z,2.60
2023-05-17T11:12:14.408Z,1.45
2023-05-17T11:14:54.812Z,4.32
2023-05-17T11:17:26.129Z,4.32
2023-05-17T11:19:53.344Z,4.20
2023-05-17T11:22:26.719Z,2.58
2023-05-17T11:24:57.239Z,6.00
2023-05-17T11:29:55.379Z,4.95
2023-05-17T11:32:29.618Z,1.80
2023-05-17T11:34:59.631Z,4.10
2023-05-17T11:37:27.980Z,3.83
2023-05-17T11:40:08.645Z,2.17
2023-05-17T11:42:37.422Z,1.48
2023-05-17T11:45:05.118Z,2.42
2023-05-17T11:47:33.155Z,8.15
2023-05-17T11:50:04.138Z,6.57
2023-05-17T11:52:32.543Z,3.50
2023-05-17T11:55:00.232Z,4.93
2023-05-17T11:57:31.367Z,7.60
2023-05-17T12:00:05.607Z,5.25
2023-05-17T12:02:41.566Z,4.90
2023-05-17T12:05:09.400Z,4.40
2023-05-17T12:07:37.411Z,2.50
2023-05-17T12:10:05.960Z,4.88
2023-05-17T12:12:32.906Z,20.83
2023-05-17T12:14:59.990Z,2.58
2023-05-17T12:17:35.767Z,2.78
2023-05-17T12:20:10.361Z,3.38
2023-05-17T12:22:56.674Z,4.82
2023-05-17T12:25:29.501Z,6.13
2023-05-17T12:28:16.158Z,2.47
2023-05-17T12:30:43.735Z,2.72
2023-05-17T12:33:11.031Z,3.20
2023-05-17T12:35:38.212Z,5.15
2023-05-17T12:38:05.141Z,1.55
2023-05-17T12:40:32.123Z,1.80
2023-05-17T12:43:05.257Z,3.38
2023-05-17T12:45:32.355Z,4.30
2023-05-17T12:48:00.564Z,3.08
2023-05-17T12:50:31.217Z,7.43
2023-05-17T12:52:58.545Z,6.80
2023-05-17T12:55:25.702Z,1.73
2023-05-17T12:57:54.210Z,0.68
2023-05-17T13:00:21.758Z,6.35
2023-05-17T13:02:48.816Z,9.05
2023-05-17T13:05:21.692Z,1.92
2023-05-17T13:07:48.815Z,3.35
2023-05-17T13:10:27.530Z,2.38
2023-05-17T13:12:58.761Z,2.78
2023-05-17T13:15:32.608Z,5.90
2023-05-17T13:18:00.617Z,1.10
2023-05-17T13:20:28.169Z,4.88
2023-05-17T13:22:55.169Z,0.22
2023-05-17T13:25:22.102Z,2.70
2023-05-17T13:27:49.376Z,2.22
2023-05-17T13:30:16.940Z,1.85
2023-05-17T13:32:44.737Z,1.02
2023-05-17T13:35:11.863Z,1.08
2023-05-17T13:37:38.796Z,1.75
2023-05-17T13:40:07.113Z,6.22
2023-05-17T13:42:34.263Z,2.67
2023-05-17T13:45:01.657Z,1.85
2023-05-17T13:47:32.555Z,0.98
2023-05-17T13:50:00.801Z,3.03
2023-05-17T13:52:27.826Z,2.83
2023-05-17T13:54:54.966Z,0.65
2023-05-17T13:57:21.877Z,1.17
2023-05-17T13:59:48.756Z,2.08
2023-05-17T14:02:15.704Z,1.98
2023-05-17T14:04:42.569Z,1.80
2023-05-17T14:07:09.427Z,0.20
2023-05-17T14:09:36.873Z,0.68
2023-05-17T14:12:04.929Z,1.15
2023-05-17T14:14:31.896Z,2.08
2023-05-17T14:16:59.009Z,4.50
2023-05-17T14:19:25.989Z,0.60
2023-05-17T14:21:52.934Z,1.90
2023-05-17T14:24:19.869Z,1.25
2023-05-17T14:26:46.722Z,1.48
2023-05-17T14:29:13.723Z,3.40
2023-05-17T14:31:41.542Z,2.95
2023-05-17T14:34:08.422Z,1.10
2023-05-17T14:36:36.536Z,2.28
2023-05-17T14:39:04.014Z,3.65
2023-05-17T14:41:31.211Z,4.97
2023-05-17T14:43:58.052Z,0.30
2023-05-17T14:46:25.010Z,4.18
2023-05-17T14:48:52.400Z,0.77
2023-05-17T14:51:19.866Z,2.60
2023-05-17T14:53:46.771Z,2.97
2023-05-17T14:56:15.240Z,2.63
2023-05-17T14:58:42.334Z,2.25
2023-05-17T15:01:09.363Z,3.63
2023-05-17T15:03:36.620Z,3.67
2023-05-17T15:06:06.937Z,0.95
2023-05-17T15:08:35.929Z,1.05
2023-05-17T15:11:03.002Z,1.55
2023-05-17T15:13:29.941Z,1.77
2023-05-17T15:15:56.773Z,3.17
2023-05-17T15:18:24.027Z,1.88
2023-05-17T15:20:51.033Z,2.17
2023-05-17T15:23:17.938Z,1.70
2023-05-17T15:25:45.036Z,0.40
2023-05-17T15:28:12.165Z,1.30
2023-05-17T15:30:41.292Z,3.55
2023-05-17T15:33:09.364Z,3.80
2023-05-17T15:35:37.102Z,1.38
2023-05-17T15:38:06.157Z,1.85
2023-05-17T15:40:34.280Z,2.22
2023-05-17T15:43:01.230Z,2.67
2023-05-17T15:45:28.535Z,0.80
2023-05-17T15:47:57.166Z,3.45
2023-05-17T15:50:24.146Z,4.03
2023-05-17T15:52:51.204Z,3.95
2023-05-17T15:55:18.098Z,0.73
2023-05-17T15:57:45.050Z,1.45
2023-05-17T16:00:12.410Z,1.27
2023-05-17T16:02:39.281Z,0.75
2023-05-17T16:05:07.309Z,2.60
2023-05-17T16:07:34.129Z,3.20
2023-05-17T16:10:01.025Z,3.67
2023-05-17T16:12:27.864Z,4.97
2023-05-17T16:14:54.716Z,2.55
2023-05-17T16:17:21.643Z,2.92
2023-05-17T16:19:48.508Z,5.10
2023-05-17T16:22:15.642Z,8.00
2023-05-17T16:24:43.451Z,1.40
2023-05-17T16:27:10.361Z,2.70
2023-05-17T16:29:40.200Z,3.50
2023-05-17T16:32:08.306Z,1.80
2023-05-17T16:34:36.087Z,2.17
2023-05-17T16:37:04.757Z,2.03
2023-05-17T16:39:32.502Z,3.55
2023-05-17T16:41:59.374Z,1.08
2023-05-17T16:44:26.294Z,3.88
2023-05-17T16:46:53.225Z,4.32
2023-05-17T16:49:20.305Z,3.33
2023-05-17T16:51:47.268Z,0.85
2023-05-17T16:54:14.091Z,0.77
2023-05-17T16:56:41.097Z,2.25
2023-05-17T16:59:08.019Z,1.35
2023-05-17T17:01:34.951Z,3.85
2023-05-17T17:04:02.735Z,3.00
2023-05-17T17:06:29.661Z,2.88
2023-05-17T17:08:56.708Z,2.58
2023-05-17T17:11:23.557Z,0.57
2023-05-17T17:13:50.435Z,0.60
2023-05-17T17:16:17.675Z,0.95
2023-05-17T17:18:44.742Z,3.78
2023-05-17T17:21:11.589Z,3.72
2023-05-17T17:23:40.244Z,4.90
2023-05-17T17:26:08.783Z,2.83
2023-05-17T17:28:35.765Z,1.88
2023-05-17T17:31:02.759Z,0.82
2023-05-17T17:33:29.749Z,2.38
2023-05-17T17:35:56.605Z,1.17
2023-05-17T17:38:23.436Z,2.40
2023-05-17T17:40:50.502Z,0.50
2023-05-17T17:43:17.369Z,3.10
2023-05-17T17:45:46.322Z,0.95
2023-05-17T17:48:13.892Z,2.88
2023-05-17T17:50:40.809Z,2.10
2023-05-17T17:53:07.657Z,3.20
2023-05-17T17:55:34.751Z,3.40
2023-05-17T17:58:01.664Z,2.80
2023-05-17T18:00:28.660Z,1.55
2023-05-17T18:02:56.269Z,0.65
2023-05-17T18:05:23.231Z,3.65
2023-05-17T18:07:50.066Z,0.40
2023-05-17T18:10:16.949Z,2.00
2023-05-17T18:12:43.810Z,1.55
2023-05-17T18:15:11.602Z,1.77
2023-05-17T18:17:39.734Z,1.10
2023-05-17T18:20:07.342Z,3.85
2023-05-17T18:22:34.536Z,2.40
2023-05-17T18:25:01.387Z,0.98
2023-05-17T18:27:28.252Z,2.90
2023-05-17T18:29:55.069Z,3.17
2023-05-17T18:32:21.968Z,3.35
2023-05-17T18:34:48.880Z,1.20
2023-05-17T18:37:15.935Z,2.50
2023-05-17T18:39:42.760Z,0.85
2023-05-17T18:42:09.609Z,1.17
2023-05-17T18:44:37.033Z,1.17
2023-05-17T18:47:04.193Z,4.38
2023-05-17T18:49:31.347Z,4.47
2023-05-17T18:51:58.177Z,2.78
2023-05-17T18:54:25.111Z,1.92
2023-05-17T18:56:51.998Z,1.67
2023-05-17T18:59:19.263Z,2.47
2023-05-17T19:01:46.418Z,1.58
2023-05-17T19:04:14.635Z,1.30
2023-05-17T19:06:42.313Z,1.20
2023-05-17T19:09:09.361Z,2.13
2023-05-17T19:11:36.335Z,2.30
2023-05-17T19:14:03.350Z,0.60
2023-05-17T19:16:30.768Z,1.30
2023-05-17T19:18:57.679Z,3.45
2023-05-17T19:21:24.563Z,1.45
2023-05-17T19:23:51.588Z,0.93
2023-05-17T19:26:18.425Z,4.13
2023-05-17T19:28:45.429Z,0.50
2023-05-17T19:31:12.605Z,2.05
2023-05-17T19:33:39.946Z,0.40
2023-05-17T19:36:06.900Z,0.40
2023-05-17T19:38:33.876Z,0.50
2023-05-17T19:41:01.603Z,1.10
2023-05-17T19:43:28.637Z,0.50
2023-05-17T19:45:55.801Z,1.58
2023-05-17T19:48:24.285Z,0.73
2023-05-17T19:50:52.912Z,1.58
2023-05-17T19:53:22.096Z,3.00
2023-05-17T19:55:48.962Z,1.65
2023-05-17T19:58:15.837Z,3.45
2023-05-17T20:00:42.757Z,0.90
2023-05-17T20:03:09.772Z,2.45
2023-05-17T20:05:36.923Z,2.58
2023-05-17T20:08:06.498Z,3.95
2023-05-17T20:10:33.694Z,1.23
2023-05-17T20:13:00.612Z,0.88
2023-05-17T20:15:27.543Z,2.78
2023-05-17T20:17:54.505Z,0.60
2023-05-17T20:20:21.867Z,1.60
2023-05-17T20:22:48.918Z,1.42
2023-05-17T20:25:15.948Z,1.60
2023-05-17T20:27:43.773Z,0.40
2023-05-17T20:30:11.167Z,0.88
2023-05-17T20:32:38.125Z,0.30
2023-05-17T20:35:05.466Z,0.80
2023-05-17T20:37:32.441Z,0.20
2023-05-17T20:40:00.078Z,0.85
2023-05-17T20:42:28.208Z,1.08
2023-05-17T20:44:55.554Z,2.15
2023-05-17T20:47:22.638Z,0.98
2023-05-17T20:49:50.212Z,0.30
2023-05-17T20:52:27.799Z,1.75
2023-05-17T20:55:05.239Z,1.52
2023-05-17T20:57:32.098Z,0.57
2023-05-17T20:59:58.957Z,2.78
2023-05-17T21:02:25.925Z,1.35
2023-05-17T21:04:54.454Z,1.75
2023-05-17T21:07:22.438Z,1.58
2023-05-17T21:09:49.328Z,1.20
2023-05-17T21:12:16.276Z,0.70
2023-05-17T21:14:43.139Z,1.95
2023-05-17T21:17:10.473Z,0.55
2023-05-17T21:19:37.383Z,0.60
2023-05-17T21:22:04.495Z,0.95
2023-05-17T21:24:31.430Z,1.38
2023-05-17T21:26:58.496Z,2.47
2023-05-17T21:29:25.457Z,0.82
2023-05-17T21:31:52.443Z,1.50
2023-05-17T21:34:19.376Z,2.92
2023-05-17T21:36:46.387Z,2.03
2023-05-17T21:39:13.385Z,1.77
2023-05-17T21:41:40.284Z,2.05
2023-05-17T21:44:07.167Z,4.47
2023-05-17T21:46:34.029Z,3.25
2023-05-17T21:49:00.893Z,2.25
2023-05-17T21:51:27.792Z,2.03
2023-05-17T21:53:54.852Z,2.47
2023-05-17T21:56:21.841Z,1.60
2023-05-17T21:58:48.712Z,3.10
2023-05-17T22:01:17.361Z,1.88
2023-05-17T22:03:44.390Z,1.50
2023-05-17T22:06:11.833Z,0.57
2023-05-17T22:08:42.221Z,1.20
2023-05-17T22:13:36.734Z,7.20
2023-05-17T22:16:03.717Z,1.00
2023-05-17T22:18:31.984Z,1.33
2023-05-17T22:20:59.511Z,2.13
2023-05-17T22:23:27.049Z,0.77
2023-05-17T22:25:53.889Z,3.65
2023-05-17T22:28:20.683Z,3.08
2023-05-17T22:30:48.653Z,1.23
2023-05-17T22:33:15.697Z,1.27
2023-05-17T22:35:42.543Z,1.00
2023-05-17T22:38:09.344Z,0.82
2023-05-17T22:40:36.364Z,0.80
2023-05-17T22:43:03.253Z,1.38
2023-05-17T22:45:33.231Z,3.45
2023-05-17T22:48:03.057Z,0.82
2023-05-17T22:50:32.989Z,5.20
2023-05-17T22:53:01.157Z,2.42
2023-05-17T22:55:28.372Z,0.63
2023-05-17T22:57:55.747Z,2.20
2023-05-17T23:00:22.670Z,2.20
2023-05-17T23:02:49.577Z,1.98
2023-05-17T23:05:16.739Z,1.95
2023-05-17T23:07:43.720Z,1.80
2023-05-17T23:10:11.130Z,4.82
2023-05-17T23:12:38.661Z,2.28
2023-05-17T23:15:06.779Z,4.22
2023-05-17T23:17:33.905Z,2.03
2023-05-17T23:20:09.768Z,2.70
2023-05-17T23:22:37.553Z,3.70
2023-05-17T23:25:06.072Z,2.03
2023-05-17T23:27:33.806Z,1.27
2023-05-17T23:30:01.199Z,4.03
2023-05-17T23:32:28.670Z,1.73
2023-05-17T23:35:03.340Z,1.20
2023-05-17T23:37:33.757Z,3.90
2023-05-17T23:40:01.085Z,2.20
2023-05-17T23:42:29.450Z,1.55
2023-05-17T23:44:56.383Z,2.80
2023-05-17T23:47:23.376Z,3.42
2023-05-17T23:49:50.289Z,3.05
2023-05-17T23:52:18.750Z,2.15
2023-05-17T23:54:46.890Z,3.92
2023-05-17T23:57:13.726Z,1.05
2023-05-17T23:59:40.595Z,3.80
